• Join FlightAware (Why Join?)
  • Login
  • US Flag 
12:38PM EDT


 

Airport Tracker/Info


-or-


 

Live Flight TrackerFlight Track Log ✈ MRA690 ✈ 06-Sep-2013 ✈ KBFI - KCLM

Flight Track Log - Related Links

Times and Time Zones

All times are in EDT time to prevent confusion due to time zone crossing. See the MRA690 flight status page for this flight to view local times or setup timezone preferences in your user account.

Time Position Orientation Groundspeed Altitude Reporting Facility
EDT Latitude Longitude Course Direction KTS MPH feet Rate Location/Type
09:59PM 47.4931 -122.2753 153° Southeast 107 123 2,200  Level Seattle Center
10:00PM 47.4675 -122.2631 162° South 113 130 3,300 960 Climbing Seattle Center
10:01PM 47.4786 -122.3061 291° West 132 152 4,100 360 Climbing Seattle Center
10:02PM 47.4992 -122.3703 295° West 169 194 4,100  Level Seattle Center
10:03PM 47.5236 -122.3986 322° Northwest 170 196 4,100  Level Seattle Center
10:03PM 47.5358 -122.4092 330° Northwest 177 204 4,100  Level Seattle Center
10:04PM 47.5692 -122.4336 334° Northwest 173 199 4,100  Level Seattle Center
10:04PM 47.5828 -122.4456 329° Northwest 171 197 4,100  Level Seattle Center
10:05PM 47.6103 -122.4686 331° Northwest 171 197 4,100  Level Seattle Center
10:05PM 47.6231 -122.4825 324° Northwest 171 197 4,100  Level Seattle Center
10:06PM 47.6506 -122.5064 330° Northwest 172 198 4,100  Level Seattle Center
10:06PM 47.6647 -122.5156 336° Northwest 177 204 4,100 -180 Level Seattle Center
10:06PM 47.6797 -122.5250 337° Northwest 173 199 4,000  Descending Seattle Center
10:07PM 47.6964 -122.5264 357° North 171 197 4,100  Climbing Seattle Center
10:07PM 47.7000 -122.5333 308° West 173 199 4,000  Descending Seattle Center
10:08PM 47.7417 -122.5442 350° North 168 193 4,100  Climbing Seattle Center
10:08PM 47.7439 -122.5478 312° West 170 196 4,000  Descending Seattle Center
10:09PM 47.7869 -122.5628 347° North 168 193 4,100  Climbing Seattle Center
10:09PM 47.7886 -122.5653 315° West 167 192 4,000  Descending Seattle Center
10:10PM 47.8278 -122.5853 341° North 165 190 4,100  Climbing Seattle Center
10:10PM 47.8336 -122.5925 320° Northwest 166 191 4,000  Descending Seattle Center
10:11PM 47.8681 -122.6197 332° Northwest 168 193 4,100  Climbing Seattle Center
10:11PM 47.8742 -122.6289 315° West 169 194 4,000 -120 Descending Seattle Center
10:12PM 47.9028 -122.6789 310° West 170 196 4,000  Level Seattle Center
10:13PM 47.9394 -122.7233 321° Northwest 164 189 4,100  Climbing Seattle Center
10:14PM 47.9772 -122.7692 321° Northwest 165 190 4,000  Descending Seattle Center
10:14PM 47.9753 -122.7664 136° Southeast 167 192 4,100  Climbing Seattle Center
10:15PM 48.0117 -122.8161 318° Northwest 168 193 4,000  Descending Seattle Center
10:15PM 48.0092 -122.8114 128° Southeast 166 191 4,100 -120 Climbing Seattle Center
10:16PM 48.0350 -122.8725 302° West 169 194 3,900 -120 Descending Seattle Center
10:16PM 48.0356 -122.8653 83° East 164 189 4,000 -120 Climbing Seattle Center
10:17PM 48.0472 -122.9331 284° West 167 192 3,800 -240 Descending Seattle Center
10:18PM 48.0603 -123.0078 285° West 160 184 3,600 -120 Descending Seattle Center
10:18PM 48.0586 -122.9978 104° East 164 189 3,700 60 Climbing Seattle Center
10:19PM 48.0700 -123.0719 283° West 160 184 3,700  Level Seattle Center
10:19PM 48.0697 -123.0606 92° East 159 183 3,700  Level Seattle Center
10:20PM 48.0797 -123.1364 281° West 161 185 3,700  Level Seattle Center
10:20PM 48.0806 -123.1378 312° West 161 185 3,700 -540 Level Seattle Center
10:21PM 48.0814 -123.2050 271° West 173 199 3,200 -540 Descending Seattle Center
10:21PM 48.0836 -123.2058 346° North 163 188 3,200 -300 Level Seattle Center
10:22PM 48.0831 -123.2736 269° West 170 196 2,900 -300 Descending Seattle Center
10:22PM 48.0861 -123.2794 308° West 170 196 2,900 -300 Level Seattle Center
10:23PM 48.0914 -123.3422 277° West 151 174 2,600 -300 Descending Seattle Center
10:23PM 48.0903 -123.3433 214° Southwest 164 189 2,600 -660 Level Seattle Center
10:24PM 48.0994 -123.4017 283° West 155 178 1,900 -780 Descending Seattle Center
10:25PM 48.1100 -123.4497 288° West 137 158 1,100 -360 Descending Seattle Center
10:26PM 48.1186 -123.4961 286° West 122 140 1,200 60 Climbing Seattle Center
10:26PM 48.1192 -123.4989 287° West 128 147 1,200 1,080 Level Seattle Center
10:27PM 48.1269 -123.5478 283° West 116 133 2,300 1,080 Climbing Seattle Center
10:27PM 48.1275 -123.5453 72° East 122 140 2,300 960 Level Seattle Center
10:28PM 48.1497 -123.5850 310° West 124 143 3,300 960 Climbing Seattle Center
10:28PM 48.1478 -123.5825 139° Southeast 118 136 3,300 660 Level Seattle Center
10:29PM 48.1728 -123.6253 311° West 139 160 4,000 660 Climbing Seattle Center
10:29PM 48.1744 -123.6244 18° North 129 148 4,000 660 Level Seattle Center
10:30PM 48.1814 -123.6772 281° West 156 180 4,700 660 Climbing Seattle Center
10:30PM 48.1836 -123.6767 North 136 157 4,700 -120 Level Seattle Center
10:31PM 48.1858 -123.7408 273° West 164 189 4,600 -120 Descending Seattle Center
10:31PM 48.1867 -123.7406 13° North 149 171 4,600  Level Seattle Center
10:32PM 48.1861 -123.8139 269° West 164 189 4,600  Level Seattle Center
10:32PM 48.1881 -123.8089 60° Northeast 157 181 4,600  Level Seattle Center
10:33PM 48.1828 -123.8819 264° West 166 191 4,600  Level Seattle Center
10:33PM 48.1831 -123.8914 273° West 162 186 4,600 60 Level Seattle Center
10:34PM 48.2100 -123.9300 316° Northwest 169 194 4,700 60 Climbing Seattle Center
10:34PM 48.2169 -123.9325 347° North 165 190 4,700  Level Seattle Center
10:35PM 48.2481 -123.9589 331° Northwest 166 191 4,700  Level Seattle Center
10:35PM 48.2478 -123.9672 267° West 165 190 4,700 -120 Level Seattle Center
10:36PM 48.2197 -123.9878 206° Southwest 131 151 4,600 -120 Descending Seattle Center
10:36PM 48.2156 -123.9853 158° South 153 176 4,600 60 Level Seattle Center
10:37PM 48.1933 -123.9522 135° Southeast 131 151 4,700 60 Climbing Seattle Center
10:37PM 48.1922 -123.9450 103° East 144 166 4,700 -240 Level Seattle Center
10:38PM 48.1869 -123.8994 100° East 128 147 4,500 -240 Descending Seattle Center
10:38PM 48.1864 -123.8922 97° East 134 154 4,500 -540 Level Seattle Center
10:39PM 48.1775 -123.8417 105° East 149 171 4,000 -600 Descending Seattle Center
10:39PM 48.1767 -123.8350 101° East 136 157 3,900 -300 Descending Seattle Center
10:40PM 48.1689 -123.7800 102° East 143 165 3,700 -240 Descending Seattle Center
10:40PM 48.1669 -123.7756 123° Southeast 143 165 3,700 -600 Level Seattle Center
10:41PM 48.1586 -123.7294 105° East 122 140 3,100 -720 Descending Seattle Center
10:41PM 48.1589 -123.7261 83° East 135 155 3,000 -600 Descending Seattle Center
10:42PM 48.1492 -123.6817 108° East 125 144 2,500 -720 Descending Seattle Center
10:42PM 48.1492 -123.6758 90° East 129 148 2,300 -600 Descending Seattle Center
10:43PM 48.1414 -123.6328 105° East 121 139 1,900 -540 Descending Seattle Center
10:43PM 48.1403 -123.6281 109° East 124 143 1,800 -660 Descending Seattle Center
10:44PM 48.1331 -123.5811 103° East 112 129 1,200 -540 Descending Seattle Center
10:44PM 48.1331 -123.5825 270° West 119 137 1,300 -600 Climbing Seattle Center
10:45PM 48.1242 -123.5361 106° East 110 127 600 -300 Descending Seattle Center
10:45PM 48.1244 -123.5286 87° East 117 135 1,000 -360 Climbing Seattle Center
10:46PM 48.1175 -123.5000 110° East 112 129 300 -840 Descending Seattle Center